createdAt,value
2022-10-13T00:00:50.814Z,97587.06
2022-10-13T00:03:20.133Z,97587.16
2022-10-13T00:05:50.285Z,97587.25
2022-10-13T00:08:21.319Z,97595.22
2022-10-13T00:10:50.348Z,97579.75
2022-10-13T00:13:18.924Z,97583.16
2022-10-13T00:15:48.810Z,97586.00
2022-10-13T00:18:16.910Z,97580.97
2022-10-13T00:20:48.383Z,97580.38
2022-10-13T00:23:17.276Z,97578.16
2022-10-13T00:25:46.375Z,97586.78
2022-10-13T00:28:15.879Z,97588.56
2022-10-13T00:30:44.229Z,97575.06
2022-10-13T00:33:12.288Z,97576.91
2022-10-13T00:35:43.216Z,97571.19
2022-10-13T00:38:13.937Z,97560.03
2022-10-13T00:40:45.615Z,97558.34
2022-10-13T00:43:24.677Z,97562.88
2022-10-13T00:45:53.748Z,97564.75
2022-10-13T00:48:25.670Z,97564.03
2022-10-13T00:50:54.576Z,97554.81
2022-10-13T00:53:31.041Z,97552.56
2022-10-13T00:55:58.576Z,97565.03
2022-10-13T00:58:27.521Z,97544.56
2022-10-13T01:00:55.272Z,97559.25
2022-10-13T01:03:22.978Z,97548.69
2022-10-13T01:05:52.208Z,97552.34
2022-10-13T01:08:21.969Z,97554.38
2022-10-13T01:11:03.208Z,97552.00
2022-10-13T01:13:37.827Z,97546.16
2022-10-13T01:16:13.177Z,97560.91
2022-10-13T01:18:46.813Z,97554.94
2022-10-13T01:21:27.956Z,97555.97
2022-10-13T01:24:18.280Z,97554.19
2022-10-13T01:27:13.749Z,97553.28
2022-10-13T01:30:04.845Z,97544.78
2022-10-13T01:32:44.410Z,97551.66
2022-10-13T01:35:18.124Z,97543.78
2022-10-13T01:37:51.536Z,97531.94
2022-10-13T01:40:25.480Z,97545.88
2022-10-13T01:42:59.357Z,97547.53
2022-10-13T01:45:32.677Z,97548.56
2022-10-13T01:48:05.608Z,97545.25
2022-10-13T01:50:35.188Z,97541.69
2022-10-13T01:53:05.449Z,97535.81
2022-10-13T01:55:33.296Z,97535.25
2022-10-13T01:58:01.149Z,97528.66
2022-10-13T02:00:47.877Z,97536.59
2022-10-13T02:03:23.698Z,97530.03
2022-10-13T02:05:58.308Z,97534.56
2022-10-13T02:08:31.663Z,97527.81
2022-10-13T02:11:08.686Z,97516.59
2022-10-13T02:13:40.748Z,97525.22
2022-10-13T02:16:11.667Z,97525.31
2022-10-13T02:18:39.659Z,97523.47
2022-10-13T02:21:07.083Z,97522.13
2022-10-13T02:23:35.030Z,97523.25
2022-10-13T02:26:03.195Z,97518.13
2022-10-13T02:28:30.795Z,97524.94
2022-10-13T02:30:58.757Z,97525.84
2022-10-13T02:33:28.830Z,97518.28
2022-10-13T02:35:56.473Z,97527.84
2022-10-13T02:38:23.597Z,97535.13
2022-10-13T02:40:51.163Z,97529.16
2022-10-13T02:43:18.725Z,97527.41
2022-10-13T02:45:46.092Z,97522.22
2022-10-13T02:48:13.723Z,97524.03
2022-10-13T02:50:42.772Z,97530.25
2022-10-13T02:53:10.406Z,97526.03
2022-10-13T02:55:37.781Z,97518.47
2022-10-13T02:58:05.708Z,97522.13
2022-10-13T03:00:33.506Z,97525.09
2022-10-13T03:03:00.934Z,97519.22
2022-10-13T03:05:28.235Z,97518.47
2022-10-13T03:07:57.848Z,97519.38
2022-10-13T03:10:25.054Z,97514.34
2022-10-13T03:12:52.306Z,97511.66
2022-10-13T03:15:20.158Z,97508.31
2022-10-13T03:17:47.667Z,97502.50
2022-10-13T03:20:15.122Z,97513.81
2022-10-13T03:22:44.915Z,97519.06
2022-10-13T03:25:19.502Z,97515.91
2022-10-13T03:27:47.198Z,97524.56
2022-10-13T03:30:14.538Z,97525.44
2022-10-13T03:32:41.822Z,97512.63
2022-10-13T03:35:09.879Z,97511.06
2022-10-13T03:37:37.104Z,97517.19
2022-10-13T03:40:05.612Z,97516.63
2022-10-13T03:42:36.307Z,97511.44
2022-10-13T03:45:04.023Z,97512.44
2022-10-13T03:47:31.381Z,97505.50
2022-10-13T03:49:58.851Z,97518.53
2022-10-13T03:52:26.737Z,97515.09
2022-10-13T03:54:54.560Z,97515.34
2022-10-13T03:57:22.113Z,97517.03
2022-10-13T03:59:51.027Z,97512.59
2022-10-13T04:02:18.459Z,97510.16
2022-10-13T04:04:46.254Z,97517.31
2022-10-13T04:07:13.605Z,97517.53
2022-10-13T04:09:40.965Z,97512.50
2022-10-13T04:12:08.467Z,97515.22
2022-10-13T04:14:35.981Z,97517.81
2022-10-13T04:17:06.076Z,97517.38
2022-10-13T04:19:33.606Z,97519.06
2022-10-13T04:22:00.713Z,97511.28
2022-10-13T04:24:28.638Z,97509.38
2022-10-13T04:26:56.366Z,97504.13
2022-10-13T04:29:24.630Z,97499.22
2022-10-13T04:31:52.829Z,97496.72
2022-10-13T04:34:21.904Z,97501.97
2022-10-13T04:36:50.376Z,97492.66
2022-10-13T04:39:17.911Z,97487.41
2022-10-13T04:41:45.421Z,97498.63
2022-10-13T04:44:13.298Z,97489.94
2022-10-13T04:46:41.098Z,97503.03
2022-10-13T04:49:08.954Z,97498.91
2022-10-13T04:51:38.765Z,97498.06
2022-10-13T04:54:06.356Z,97497.22
2022-10-13T04:56:34.444Z,97496.31
2022-10-13T04:59:02.400Z,97500.81
2022-10-13T05:01:30.223Z,97503.41
2022-10-13T05:04:02.101Z,97512.91
2022-10-13T05:06:31.218Z,97507.72
2022-10-13T05:09:02.553Z,97511.38
2022-10-13T05:11:31.616Z,97504.59
2022-10-13T05:13:59.895Z,97513.31
2022-10-13T05:16:27.354Z,97508.88
2022-10-13T05:18:55.809Z,97508.66
2022-10-13T05:21:25.906Z,97505.00
2022-10-13T05:23:53.762Z,97505.13
2022-10-13T05:26:25.816Z,97512.69
2022-10-13T05:28:53.111Z,97509.97
2022-10-13T05:31:21.756Z,97512.34
2022-10-13T05:33:49.608Z,97514.72
2022-10-13T05:36:19.989Z,97516.97
2022-10-13T05:38:51.687Z,97523.69
2022-10-13T05:41:19.444Z,97520.94
2022-10-13T05:43:48.972Z,97517.16
2022-10-13T05:46:17.070Z,97521.34
2022-10-13T05:48:44.968Z,97526.47
2022-10-13T05:51:16.672Z,97521.13
2022-10-13T05:53:51.149Z,97520.44
2022-10-13T05:56:26.077Z,97529.78
2022-10-13T05:58:59.787Z,97518.59
2022-10-13T06:01:29.813Z,97525.50
2022-10-13T06:04:02.069Z,97520.31
2022-10-13T06:06:31.599Z,97525.50
2022-10-13T06:09:00.321Z,97531.38
2022-10-13T06:11:27.597Z,97530.47
2022-10-13T06:13:56.678Z,97542.94
2022-10-13T06:16:23.664Z,97543.81
2022-10-13T06:18:50.623Z,97549.69
2022-10-13T06:21:17.735Z,97542.72
2022-10-13T06:23:44.988Z,97551.19
2022-10-13T06:26:12.059Z,97549.28
2022-10-13T06:28:39.561Z,97541.34
2022-10-13T06:31:09.304Z,97541.28
2022-10-13T06:33:36.414Z,97528.16
2022-10-13T06:36:04.223Z,97545.41
2022-10-13T06:38:31.940Z,97539.25
2022-10-13T06:41:03.048Z,97537.41
2022-10-13T06:43:35.997Z,97543.34
2022-10-13T06:46:09.632Z,97544.81
2022-10-13T06:48:36.896Z,97548.88
2022-10-13T06:51:04.944Z,97552.00
2022-10-13T06:53:32.404Z,97544.81
2022-10-13T06:56:00.280Z,97554.97
2022-10-13T06:58:28.663Z,97552.16
2022-10-13T07:00:56.013Z,97553.59
2022-10-13T07:03:25.229Z,97555.97
2022-10-13T07:05:52.218Z,97548.78
2022-10-13T07:08:19.613Z,97548.63
2022-10-13T07:10:46.649Z,97542.28
2022-10-13T07:13:13.838Z,97538.34
2022-10-13T07:15:41.412Z,97540.78
2022-10-13T07:18:08.808Z,97536.13
2022-10-13T07:20:37.519Z,97538.41
2022-10-13T07:23:04.664Z,97543.44
2022-10-13T07:25:31.884Z,97536.31
2022-10-13T07:27:59.843Z,97528.28
2022-10-13T07:30:27.763Z,97529.72
2022-10-13T07:32:55.137Z,97525.19
2022-10-13T07:35:25.783Z,97531.81
2022-10-13T07:37:58.290Z,97527.28
2022-10-13T07:40:25.325Z,97520.97
2022-10-13T07:42:52.480Z,97526.78
2022-10-13T07:45:19.678Z,97509.16
2022-10-13T07:47:47.070Z,97512.34
2022-10-13T07:50:14.428Z,97503.44
2022-10-13T07:52:41.414Z,97503.13
2022-10-13T07:55:10.438Z,97510.50
2022-10-13T07:57:38.083Z,97498.06
2022-10-13T08:00:06.582Z,97509.72
2022-10-13T08:02:34.093Z,97498.41
2022-10-13T08:05:02.750Z,97494.53
2022-10-13T08:07:29.854Z,97497.66
2022-10-13T08:09:57.219Z,97491.31
2022-10-13T08:12:27.251Z,97495.34
2022-10-13T08:14:54.594Z,97501.03
2022-10-13T08:17:21.919Z,97500.03
2022-10-13T08:19:51.359Z,97503.28
2022-10-13T08:22:18.378Z,97489.81
2022-10-13T08:24:45.723Z,97506.50
2022-10-13T08:27:19.655Z,97500.75
2022-10-13T08:29:48.680Z,97494.22
2022-10-13T08:32:15.845Z,97493.22
2022-10-13T08:34:43.208Z,97495.47
2022-10-13T08:37:14.444Z,97486.34
2022-10-13T08:39:41.645Z,97486.06
2022-10-13T08:42:15.278Z,97482.44
2022-10-13T08:45:16.064Z,97485.50
2022-10-13T08:47:41.733Z,97475.44
2022-10-13T08:50:14.369Z,97484.28
2022-10-13T08:52:47.799Z,97476.16
2022-10-13T08:55:23.343Z,97476.66
2022-10-13T08:57:50.661Z,97481.47
2022-10-13T09:00:18.898Z,97481.09
2022-10-13T09:02:48.191Z,97475.59
2022-10-13T09:05:27.048Z,97480.41
2022-10-13T09:07:55.266Z,97477.47
2022-10-13T09:10:22.286Z,97471.84
2022-10-13T09:12:49.288Z,97471.66
2022-10-13T09:15:16.302Z,97481.66
2022-10-13T09:17:43.424Z,97476.91
2022-10-13T09:20:20.978Z,97472.03
2022-10-13T09:23:02.131Z,97471.44
2022-10-13T09:25:29.353Z,97469.91
2022-10-13T09:27:58.503Z,97462.41
2022-10-13T09:30:30.833Z,97462.91
2022-10-13T09:33:17.713Z,97465.88
2022-10-13T09:35:48.523Z,97463.69
2022-10-13T09:38:17.390Z,97463.91
2022-10-13T09:40:55.842Z,97467.03
2022-10-13T09:43:31.262Z,97458.03
2022-10-13T09:45:59.637Z,97451.16
2022-10-13T09:48:29.888Z,97460.34
2022-10-13T09:50:58.553Z,97456.28
2022-10-13T09:53:31.569Z,97456.56
2022-10-13T09:56:22.031Z,97450.72
2022-10-13T09:58:54.498Z,97456.41
2022-10-13T10:01:27.503Z,97444.13
2022-10-13T10:03:57.339Z,97447.47
2022-10-13T10:06:28.043Z,97449.78
2022-10-13T10:09:04.937Z,97450.91
2022-10-13T10:11:38.715Z,97442.53
2022-10-13T10:14:16.865Z,97432.84
2022-10-13T10:16:51.386Z,97430.75
2022-10-13T10:19:25.731Z,97434.78
2022-10-13T10:22:03.381Z,97430.09
2022-10-13T10:24:41.682Z,97426.06
2022-10-13T10:27:15.759Z,97424.22
2022-10-13T10:29:50.273Z,97414.00
2022-10-13T10:32:29.304Z,97425.84
2022-10-13T10:35:02.564Z,97425.25
2022-10-13T10:37:45.291Z,97413.88
2022-10-13T10:40:25.495Z,97405.78
2022-10-13T10:43:03.211Z,97404.81
2022-10-13T10:45:36.184Z,97398.16
2022-10-13T10:48:18.825Z,97399.91
2022-10-13T10:50:46.895Z,97396.81
2022-10-13T10:53:22.982Z,97397.91
2022-10-13T10:55:54.424Z,97395.63
2022-10-13T10:58:30.643Z,97389.56
2022-10-13T11:01:06.897Z,97381.81
2022-10-13T11:03:46.462Z,97377.41
2022-10-13T11:06:26.337Z,97381.78
2022-10-13T11:08:57.136Z,97370.34
2022-10-13T11:11:39.316Z,97380.38
2022-10-13T11:14:29.968Z,97366.53
2022-10-13T11:17:19.195Z,97368.44
2022-10-13T11:19:49.184Z,97367.22
2022-10-13T11:22:21.907Z,97361.72
2022-10-13T11:25:39.081Z,97362.59
2022-10-13T11:28:39.698Z,97343.97
2022-10-13T11:31:39.993Z,97352.88
2022-10-13T11:34:27.333Z,97347.88
2022-10-13T11:37:01.313Z,97357.19
2022-10-13T11:39:52.893Z,97336.63
2022-10-13T11:43:14.434Z,97335.75
2022-10-13T11:46:22.918Z,97339.47
2022-10-13T11:49:20.473Z,97339.22
2022-10-13T11:52:12.681Z,97332.03
2022-10-13T11:54:46.236Z,97325.34
2022-10-13T11:57:22.114Z,97323.72
2022-10-13T11:59:52.333Z,97320.34
2022-10-13T12:02:19.782Z,97315.56
2022-10-13T12:05:05.121Z,97315.81
2022-10-13T12:07:36.864Z,97318.31
2022-10-13T12:10:08.553Z,97309.19
2022-10-13T12:12:36.027Z,97306.19
2022-10-13T12:15:24.662Z,97302.59
2022-10-13T12:17:51.946Z,97299.44
2022-10-13T12:20:25.983Z,97299.88
2022-10-13T12:22:54.598Z,97297.25
2022-10-13T12:25:24.174Z,97295.22
2022-10-13T12:27:53.466Z,97294.19
2022-10-13T12:30:22.875Z,97291.44
2022-10-13T12:32:51.734Z,97287.72
2022-10-13T12:35:23.074Z,97270.16
2022-10-13T12:37:50.902Z,97293.56
2022-10-13T12:40:19.078Z,97290.66
2022-10-13T12:42:47.052Z,97279.19
2022-10-13T12:45:16.658Z,97282.13
2022-10-13T12:47:49.975Z,97285.97
2022-10-13T12:50:37.435Z,97280.16
2022-10-13T12:53:17.176Z,97273.41
2022-10-13T12:55:52.814Z,97272.72
2022-10-13T12:58:24.475Z,97268.47
2022-10-13T13:01:29.775Z,97269.53
2022-10-13T13:03:59.922Z,97268.75
2022-10-13T13:06:52.354Z,97256.16
2022-10-13T13:09:25.421Z,97263.91
2022-10-13T13:12:20.010Z,97257.28
2022-10-13T13:14:49.121Z,97260.06
2022-10-13T13:17:45.428Z,97252.31
2022-10-13T13:20:21.594Z,97254.81
2022-10-13T13:22:50.851Z,97256.75
2022-10-13T13:25:18.257Z,97253.13
2022-10-13T13:27:45.816Z,97252.88
2022-10-13T13:30:15.985Z,97249.69
2022-10-13T13:32:43.418Z,97254.69
2022-10-13T13:35:11.480Z,97250.56
2022-10-13T13:37:41.977Z,97244.78
2022-10-13T13:40:17.728Z,97240.03
2022-10-13T13:42:45.395Z,97247.94
2022-10-13T13:45:13.449Z,97247.97
2022-10-13T13:47:41.096Z,97250.22
2022-10-13T13:50:16.184Z,97244.41
2022-10-13T13:52:43.664Z,97250.75
2022-10-13T13:55:14.079Z,97249.13
2022-10-13T13:57:42.897Z,97256.03
2022-10-13T14:00:12.153Z,97243.47
2022-10-13T14:02:39.813Z,97243.88
2022-10-13T14:05:07.782Z,97244.00
2022-10-13T14:07:35.074Z,97244.13
2022-10-13T14:10:02.608Z,97238.47
2022-10-13T14:12:33.113Z,97240.66
2022-10-13T14:15:01.092Z,97246.44
2022-10-13T14:17:28.635Z,97240.88
2022-10-13T14:19:55.814Z,97238.50
2022-10-13T14:22:23.542Z,97234.72
2022-10-13T14:24:51.133Z,97238.63
2022-10-13T14:27:18.914Z,97232.50
2022-10-13T14:29:48.305Z,97236.66
2022-10-13T14:32:15.513Z,97230.59
2022-10-13T14:34:42.983Z,97239.03
2022-10-13T14:37:10.545Z,97225.34
2022-10-13T14:39:37.762Z,97218.53
2022-10-13T14:42:05.074Z,97216.03
2022-10-13T14:44:32.473Z,97231.25
2022-10-13T14:47:01.514Z,97230.66
2022-10-13T14:49:28.885Z,97229.16
2022-10-13T14:51:55.953Z,97232.19
2022-10-13T14:54:23.355Z,97222.31
2022-10-13T14:56:51.233Z,97221.75
2022-10-13T14:59:18.533Z,97232.28
2022-10-13T15:01:46.761Z,97239.69
2022-10-13T15:04:15.615Z,97227.81
2022-10-13T15:06:43.313Z,97233.31
2022-10-13T15:09:11.617Z,97235.63
2022-10-13T15:11:39.141Z,97233.44
2022-10-13T15:14:09.194Z,97226.47
2022-10-13T15:16:36.733Z,97219.41
2022-10-13T15:19:04.813Z,97217.50
2022-10-13T15:21:34.614Z,97207.50
2022-10-13T15:24:02.422Z,97219.00
2022-10-13T15:26:30.573Z,97205.13
2022-10-13T15:28:58.409Z,97207.19
2022-10-13T15:31:26.256Z,97222.81
2022-10-13T15:33:54.262Z,97213.78
2022-10-13T15:36:24.994Z,97219.16
2022-10-13T15:38:55.226Z,97213.59
2022-10-13T15:41:23.056Z,97207.19
2022-10-13T15:43:50.815Z,97215.63
2022-10-13T15:46:18.454Z,97221.59
2022-10-13T15:48:46.016Z,97214.53
2022-10-13T15:51:16.334Z,97212.31
2022-10-13T15:53:44.175Z,97211.72
2022-10-13T15:56:13.756Z,97215.19
2022-10-13T15:58:42.217Z,97216.50
2022-10-13T16:01:10.676Z,97221.31
2022-10-13T16:03:39.071Z,97219.88
2022-10-13T16:06:08.828Z,97212.88
2022-10-13T16:08:37.092Z,97218.06
2022-10-13T16:11:08.993Z,97221.19
2022-10-13T16:13:39.593Z,97221.34
2022-10-13T16:16:08.350Z,97214.91
2022-10-13T16:18:37.979Z,97222.00
2022-10-13T16:21:12.337Z,97216.50
2022-10-13T16:23:43.335Z,97226.78
2022-10-13T16:26:11.382Z,97225.06
2022-10-13T16:28:41.429Z,97231.16
2022-10-13T16:31:10.499Z,97234.50
2022-10-13T16:33:38.099Z,97234.97
2022-10-13T16:36:07.811Z,97225.44
2022-10-13T16:38:37.135Z,97228.41
2022-10-13T16:41:05.881Z,97228.28
2022-10-13T16:43:33.620Z,97227.28
2022-10-13T16:46:03.731Z,97236.59
2022-10-13T16:48:32.903Z,97247.63
2022-10-13T16:51:04.820Z,97248.78
2022-10-13T16:53:32.319Z,97254.38
2022-10-13T16:56:01.031Z,97251.59
2022-10-13T16:58:28.170Z,97244.22
2022-10-13T17:01:07.421Z,97252.16
2022-10-13T17:03:35.588Z,97254.91
2022-10-13T17:06:03.141Z,97257.97
2022-10-13T17:08:31.799Z,97249.97
2022-10-13T17:11:01.179Z,97244.63
2022-10-13T17:13:29.004Z,97244.84
2022-10-13T17:15:57.040Z,97236.28
2022-10-13T17:18:27.789Z,97234.59
2022-10-13T17:20:57.205Z,97235.47
2022-10-13T17:23:25.532Z,97237.13
2022-10-13T17:25:54.683Z,97235.47
2022-10-13T17:28:23.928Z,97240.59
2022-10-13T17:30:59.501Z,97234.94
2022-10-13T17:33:29.379Z,97244.78
2022-10-13T17:36:00.513Z,97243.44
2022-10-13T17:38:29.399Z,97243.44
2022-10-13T17:41:01.471Z,97235.09
2022-10-13T17:43:30.263Z,97235.44
2022-10-13T17:46:34.483Z,97236.69
2022-10-13T17:49:00.458Z,97247.69
2022-10-13T17:51:29.129Z,97242.19
2022-10-13T17:53:59.536Z,97246.31
2022-10-13T17:56:28.222Z,97243.59
2022-10-13T17:58:57.442Z,97235.34
2022-10-13T18:01:27.088Z,97249.34
2022-10-13T18:03:56.370Z,97255.72
2022-10-13T18:06:26.544Z,97246.13
2022-10-13T18:08:54.463Z,97250.28
2022-10-13T18:11:23.863Z,97256.56
2022-10-13T18:13:53.602Z,97248.94
2022-10-13T18:16:24.318Z,97254.38
2022-10-13T18:18:54.676Z,97260.72
2022-10-13T18:21:26.641Z,97266.38
2022-10-13T18:23:56.004Z,97262.44
2022-10-13T18:26:25.743Z,97267.66
2022-10-13T18:28:55.008Z,97264.59
2022-10-13T18:31:25.306Z,97259.56
2022-10-13T18:33:54.544Z,97269.28
2022-10-13T18:36:28.279Z,97272.63
2022-10-13T18:39:00.239Z,97261.78
2022-10-13T18:41:27.913Z,97265.22
2022-10-13T18:43:56.798Z,97273.16
2022-10-13T18:46:25.544Z,97265.75
2022-10-13T18:48:54.022Z,97260.75
2022-10-13T18:51:22.213Z,97263.47
2022-10-13T18:53:53.354Z,97264.56
2022-10-13T18:56:23.093Z,97258.31
2022-10-13T18:58:57.032Z,97269.59
2022-10-13T19:01:30.626Z,97260.91
2022-10-13T19:03:59.626Z,97255.69
2022-10-13T19:06:29.705Z,97263.72
2022-10-13T19:09:01.838Z,97258.50
2022-10-13T19:11:31.181Z,97269.06
2022-10-13T19:14:00.048Z,97244.00
2022-10-13T19:16:30.648Z,97259.03
2022-10-13T19:18:59.632Z,97245.41
2022-10-13T19:21:28.293Z,97246.69
2022-10-13T19:24:01.469Z,97257.13
2022-10-13T19:26:32.758Z,97263.88
2022-10-13T19:29:03.965Z,97258.66
2022-10-13T19:31:34.320Z,97252.72
2022-10-13T19:34:04.497Z,97249.28
2022-10-13T19:36:35.796Z,97251.69
2022-10-13T19:39:11.724Z,97260.56
2022-10-13T19:41:43.988Z,97262.63
2022-10-13T19:44:13.083Z,97255.94
2022-10-13T19:46:41.797Z,97249.91
2022-10-13T19:49:11.037Z,97260.53
2022-10-13T19:51:43.387Z,97257.16
2022-10-13T19:54:13.993Z,97255.53
2022-10-13T19:56:42.847Z,97255.63
2022-10-13T19:59:11.407Z,97259.06
2022-10-13T20:01:40.101Z,97257.28
2022-10-13T20:04:08.433Z,97252.16
2022-10-13T20:06:36.587Z,97251.31
2022-10-13T20:09:05.614Z,97253.31
2022-10-13T20:11:34.981Z,97250.91
2022-10-13T20:14:03.247Z,97245.22
2022-10-13T20:16:30.721Z,97243.66
2022-10-13T20:19:00.102Z,97231.75
2022-10-13T20:21:28.532Z,97245.63
2022-10-13T20:23:56.500Z,97248.44
2022-10-13T20:26:24.346Z,97240.84
2022-10-13T20:28:54.900Z,97241.97
2022-10-13T20:31:23.204Z,97246.75
2022-10-13T20:33:54.225Z,97248.59
2022-10-13T20:36:22.465Z,97244.31
2022-10-13T20:38:49.804Z,97242.09
2022-10-13T20:41:19.182Z,97239.50
2022-10-13T20:43:47.909Z,97239.69
2022-10-13T20:46:18.648Z,97238.94
2022-10-13T20:51:35.461Z,97240.28
2022-10-13T20:54:03.041Z,97231.81
2022-10-13T20:56:30.535Z,97239.63
2022-10-13T20:59:02.660Z,97238.97
2022-10-13T21:01:32.943Z,97241.59
2022-10-13T21:03:59.969Z,97236.66
2022-10-13T21:06:28.291Z,97243.66
2022-10-13T21:08:55.884Z,97236.03
2022-10-13T21:11:25.049Z,97236.84
2022-10-13T21:13:52.922Z,97247.38
2022-10-13T21:16:23.197Z,97238.72
2022-10-13T21:18:52.941Z,97235.28
2022-10-13T21:21:22.208Z,97236.94
2022-10-13T21:23:51.201Z,97225.22
2022-10-13T21:26:21.619Z,97233.91
2022-10-13T21:28:50.482Z,97231.41
2022-10-13T21:31:19.762Z,97233.81
2022-10-13T21:33:47.182Z,97230.81
2022-10-13T21:36:17.641Z,97222.28
2022-10-13T21:38:46.238Z,97223.09
2022-10-13T21:41:15.127Z,97224.97
2022-10-13T21:43:42.785Z,97225.91
2022-10-13T21:46:12.166Z,97220.78
2022-10-13T21:48:40.119Z,97226.41
2022-10-13T21:51:12.513Z,97224.09
2022-10-13T21:53:41.958Z,97223.69
2022-10-13T21:56:11.030Z,97224.06
2022-10-13T21:58:38.835Z,97220.59
2022-10-13T22:01:06.960Z,97218.78
2022-10-13T22:03:35.710Z,97215.25
2022-10-13T22:06:08.125Z,97201.13
2022-10-13T22:08:38.735Z,97205.09
2022-10-13T22:11:10.405Z,97213.56
2022-10-13T22:13:37.952Z,97209.72
2022-10-13T22:16:07.203Z,97208.72
2022-10-13T22:18:34.242Z,97215.66
2022-10-13T22:21:02.209Z,97207.22
2022-10-13T22:23:29.733Z,97199.88
2022-10-13T22:25:56.754Z,97206.88
2022-10-13T22:28:25.857Z,97208.47
2022-10-13T22:30:53.966Z,97205.19
2022-10-13T22:33:21.069Z,97200.94
2022-10-13T22:35:48.183Z,97198.44
2022-10-13T22:38:15.509Z,97196.84
2022-10-13T22:40:42.760Z,97203.53
2022-10-13T22:43:09.906Z,97192.75
2022-10-13T22:45:38.794Z,97202.38
2022-10-13T22:48:06.292Z,97196.44
2022-10-13T22:50:34.972Z,97198.09
2022-10-13T22:53:02.543Z,97201.84
2022-10-13T22:55:30.049Z,97202.75
2022-10-13T22:57:57.792Z,97195.97
2022-10-13T23:00:24.871Z,97190.84
2022-10-13T23:02:53.913Z,97190.94
2022-10-13T23:05:21.455Z,97191.91
2022-10-13T23:07:48.361Z,97205.91
2022-10-13T23:10:15.821Z,97192.38
2022-10-13T23:12:43.855Z,97185.47
2022-10-13T23:15:11.520Z,97188.91
2022-10-13T23:17:38.547Z,97196.81
2022-10-13T23:20:09.057Z,97196.91
2022-10-13T23:22:36.513Z,97189.38
2022-10-13T23:25:03.844Z,97188.53
2022-10-13T23:27:31.027Z,97184.34
2022-10-13T23:29:58.203Z,97179.31
2022-10-13T23:32:25.952Z,97183.69
2022-10-13T23:34:53.646Z,97181.84
2022-10-13T23:37:22.599Z,97182.13
2022-10-13T23:39:50.205Z,97172.66
2022-10-13T23:42:17.380Z,97188.44
2022-10-13T23:44:44.785Z,97177.38
2022-10-13T23:47:12.083Z,97184.44
2022-10-13T23:49:39.086Z,97185.34
2022-10-13T23:52:10.803Z,97186.22
2022-10-13T23:54:40.251Z,97179.41
2022-10-13T23:57:07.360Z,97180.25
2022-10-13T23:59:34.851Z,97172.84
